Terminal Aerodrome Forecast
Issued by NWS

Home | Current Version | Previous Version | Text Only | Print | Product List | Glossary On
Versions: 1 2 3 4 5 6 7 8 9 10 11 12 13
151
FTUS43 KICT 071732
TAFCNU
TAF
KCNU 071732Z 0718/0818 32013KT P6SM BKN150
     FM072000 31018G29KT P6SM BKN150
     FM080100 31015G23KT P6SM SCT150
     FM081300 32018KT P6SM BKN050
     FM081600 32026G34KT P6SM BKN045=

USA.gov is the U.S. government's official web portal to all federal, state and local government web resources and services.